Time;durP1;ratioP1;P1;durP2;ratioP2;P2;SDS_P1;SDS_P2;PMS_P1;PMS_P2;Temp;Humidity;BMP_temperature;BMP_pressure;BME280_temperature;BME280_humidity;BME280_pressure;Samples;Min_cycle;Max_cycle;Signal;HPM_P1;HPM_P2
2022/08/20 00:00:43;;;;;;;4.80;0.85;;;;;;;20.17;100.00;100166.66;5070232;28;20115;-62
2022/08/20 00:03:22;;;;;;;4.18;0.98;;;;;;;20.12;100.00;100171.78;5069966;28;20037;-62
2022/08/20 00:05:53;;;;;;;7.38;0.80;;;;;;;20.09;100.00;100172.22;5067586;28;20025;-62
2022/08/20 00:08:20;;;;;;;5.85;0.80;;;;;;;20.05;100.00;100171.00;5067118;28;20060;-65
2022/08/20 00:10:47;;;;;;;2.58;0.85;;;;;;;20.04;100.00;100165.94;5065054;28;20033;-63
2022/08/20 00:13:17;;;;;;;3.60;1.17;;;;;;;19.99;100.00;100176.34;5067582;28;20036;-65
2022/08/20 00:15:43;;;;;;;7.40;1.10;;;;;;;19.96;100.00;100176.75;5065277;28;20087;-65
2022/08/20 00:18:08;;;;;;;7.82;0.98;;;;;;;19.93;100.00;100185.94;5069893;28;20528;-65
2022/08/20 00:20:39;;;;;;;5.65;1.30;;;;;;;20.07;100.00;100184.84;5067673;28;20032;-64
2022/08/20 00:23:05;;;;;;;2.30;0.55;;;;;;;20.22;100.00;100184.53;5069850;28;20075;-64
2022/08/20 00:25:31;;;;;;;9.70;0.70;;;;;;;20.26;100.00;100182.28;5067483;28;20032;-65
2022/08/20 00:27:58;;;;;;;4.47;0.60;;;;;;;20.31;100.00;100180.63;5066983;28;20105;-65
2022/08/20 00:30:25;;;;;;;3.13;0.60;;;;;;;20.33;100.00;100188.31;5067192;28;20491;-65
2022/08/20 00:32:57;;;;;;;4.47;0.73;;;;;;;20.32;100.00;100187.50;5069194;28;20025;-64
2022/08/20 00:35:26;;;;;;;8.50;0.90;;;;;;;20.29;100.00;100187.16;5067641;28;20127;-65
2022/08/20 00:37:52;;;;;;;3.50;1.05;;;;;;;20.24;100.00;100186.97;5067269;28;20388;-64
2022/08/20 00:40:23;;;;;;;4.40;0.90;;;;;;;20.16;100.00;100188.84;5067370;28;20425;-64
2022/08/20 00:42:56;;;;;;;4.70;0.82;;;;;;;20.10;100.00;100188.88;5068938;28;20046;-65
2022/08/20 00:45:24;;;;;;;7.75;1.45;;;;;;;20.07;100.00;100184.03;5066188;28;20028;-64
2022/08/20 00:47:50;;;;;;;6.90;0.95;;;;;;;20.07;100.00;100184.84;5068886;28;20044;-64
2022/08/20 00:50:19;;;;;;;6.47;1.17;;;;;;;20.03;100.00;100181.00;5067582;28;20085;-64
2022/08/20 00:52:49;;;;;;;3.60;0.98;;;;;;;20.05;100.00;100181.59;5068174;28;20032;-64
2022/08/20 00:55:18;;;;;;;5.90;1.10;;;;;;;20.06;100.00;100185.84;5067556;28;20040;-65
2022/08/20 00:57:52;;;;;;;4.60;0.90;;;;;;;19.99;100.00;100178.97;5069268;28;20032;-65
2022/08/20 01:00:36;;;;;;;6.90;1.20;;;;;;;19.92;100.00;100181.66;5067695;28;20047;-65
2022/08/20 01:03:04;;;;;;;4.00;0.95;;;;;;;19.97;100.00;100187.13;5068534;28;20037;-65
2022/08/20 01:05:29;;;;;;;4.00;1.27;;;;;;;19.99;100.00;100181.63;5066031;28;20532;-65
2022/08/20 01:07:55;;;;;;;4.35;1.15;;;;;;;20.03;100.00;100178.34;5068393;28;20077;-65
2022/08/20 01:10:26;;;;;;;7.15;1.15;;;;;;;20.04;100.00;100179.97;5067535;28;20052;-64
2022/08/20 01:12:55;;;;;;;7.15;1.13;;;;;;;20.04;100.00;100173.88;5062736;28;20037;-64
2022/08/20 01:15:23;;;;;;;10.80;1.48;;;;;;;19.94;100.00;100174.31;5065909;28;20032;-64
2022/08/20 01:17:51;;;;;;;6.30;1.48;;;;;;;19.90;100.00;100167.84;5067410;28;20040;-66
2022/08/20 01:20:40;;;;;;;5.60;1.63;;;;;;;19.84;100.00;100184.56;5058168;28;20111;-65
2022/08/20 01:23:39;;;;;;;4.40;1.25;;;;;;;19.80;100.00;100183.38;5068303;28;20036;-65
2022/08/20 01:26:13;;;;;;;8.23;1.42;;;;;;;19.74;100.00;100176.28;5066528;28;20033;-64
2022/08/20 01:29:01;;;;;;;4.95;1.13;;;;;;;19.72;100.00;100173.03;5067129;28;20086;-64
2022/08/20 01:31:30;;;;;;;6.28;1.52;;;;;;;19.74;100.00;100171.00;5067889;28;20071;-65
2022/08/20 01:33:57;;;;;;;3.50;1.17;;;;;;;19.75;100.00;100167.34;5066952;28;20499;-65
2022/08/20 01:36:29;;;;;;;7.05;1.60;;;;;;;19.72;100.00;100160.63;5067508;28;20090;-64
2022/08/20 01:38:55;;;;;;;5.32;1.33;;;;;;;19.64;100.00;100163.53;5066538;28;20035;-65
2022/08/20 01:41:21;;;;;;;6.10;1.38;;;;;;;19.69;100.00;100160.25;5067674;28;20047;-65
2022/08/20 01:43:55;;;;;;;4.82;1.25;;;;;;;19.67;100.00;100157.00;5067982;28;20040;-65
2022/08/20 01:46:35;;;;;;;1.38;0.60;;;;;;;19.60;100.00;100151.75;5065402;28;20045;-64
2022/08/20 01:49:12;;;;;;;5.13;1.00;;;;;;;19.57;100.00;100154.00;5067924;28;20397;-64
2022/08/20 01:51:37;;;;;;;3.78;0.95;;;;;;;19.49;100.00;100153.19;5066407;28;20040;-64
2022/08/20 01:54:03;;;;;;;5.75;0.93;;;;;;;19.47;100.00;100157.06;5067816;28;20111;-65
2022/08/20 01:56:30;;;;;;;8.50;1.20;;;;;;;19.51;100.00;100158.28;5066965;28;20034;-65
2022/08/20 01:58:59;;;;;;;6.50;1.52;;;;;;;19.52;100.00;100163.38;5068103;28;20351;-65
2022/08/20 02:01:33;;;;;;;7.00;1.10;;;;;;;19.49;100.00;100161.13;5067712;28;20490;-64
2022/08/20 02:04:01;;;;;;;4.13;0.88;;;;;;;19.44;100.00;100162.75;5064331;28;20053;-66
2022/08/20 02:06:29;;;;;;;3.65;1.08;;;;;;;19.40;100.00;100167.66;5067013;28;20122;-65
2022/08/20 02:08:58;;;;;;;5.95;1.15;;;;;;;19.36;100.00;100160.38;5047943;28;20435;-65
2022/08/20 02:11:25;;;;;;;4.88;1.17;;;;;;;19.33;100.00;100166.06;5065133;28;20396;-65
2022/08/20 02:13:51;;;;;;;7.30;1.42;;;;;;;19.32;100.00;100161.81;5066698;28;20037;-65
2022/08/20 02:16:28;;;;;;;5.30;1.10;;;;;;;19.25;100.00;100159.19;5067828;28;20520;-64
2022/08/20 02:18:58;;;;;;;6.20;1.33;;;;;;;19.16;100.00;100165.72;5066210;28;20122;-65
2022/08/20 02:21:27;;;;;;;11.27;1.70;;;;;;;19.16;100.00;100163.06;5066476;28;20024;-64
2022/08/20 02:23:53;;;;;;;4.57;1.50;;;;;;;19.18;100.00;100168.97;5064378;28;20064;-65
2022/08/20 02:26:19;;;;;;;3.50;1.60;;;;;;;19.22;100.00;100164.88;5066019;28;20050;-65
2022/08/20 02:28:49;;;;;;;6.57;1.48;;;;;;;19.21;100.00;100172.00;5067490;28;20115;-65
2022/08/20 02:31:17;;;;;;;6.10;1.77;;;;;;;19.17;100.00;100167.34;5067180;28;20051;-67
2022/08/20 02:33:43;;;;;;;8.45;1.63;;;;;;;19.13;100.00;100161.66;5064798;28;20135;-64
2022/08/20 02:36:11;;;;;;;3.10;1.42;;;;;;;19.15;100.00;100156.16;5066933;28;20373;-65
2022/08/20 02:38:37;;;;;;;5.95;2.28;;;;;;;19.14;100.00;100157.19;5067283;28;20111;-67
2022/08/20 02:43:34;;;;;;;8.55;1.73;;;;;;;19.20;100.00;100156.34;5044771;28;20053;-83
2022/08/20 02:46:01;;;;;;;10.32;1.73;;;;;;;19.21;100.00;100152.69;5030259;28;20541;-83
2022/08/20 02:48:27;;;;;;;6.88;1.25;;;;;;;19.19;100.00;100154.72;5048127;28;20788;-83
2022/08/20 02:51:00;;;;;;;2.85;1.75;;;;;;;19.16;100.00;100155.16;5048066;28;20025;-84
2022/08/20 02:53:29;;;;;;;5.20;1.50;;;;;;;19.15;100.00;100149.06;5048079;28;20543;-84
2022/08/20 02:55:57;;;;;;;2.67;1.38;;;;;;;19.21;100.00;100152.69;5048336;28;20017;-84
2022/08/20 02:58:30;;;;;;;4.20;1.52;;;;;;;19.17;100.00;100151.50;5030122;28;20025;-88
2022/08/20 03:00:56;;;;;;;6.07;1.88;;;;;;;19.09;100.00;100159.63;5048415;28;20112;-85
2022/08/20 03:03:22;;;;;;;5.85;1.50;;;;;;;19.11;100.00;100158.41;5047859;28;20108;-86
2022/08/20 03:05:52;;;;;;;3.63;1.30;;;;;;;19.12;100.00;100153.94;5047984;28;20032;-85
2022/08/20 03:08:17;;;;;;;5.60;1.90;;;;;;;19.11;100.00;100157.59;5048191;28;20351;-86
2022/08/20 03:10:45;;;;;;;5.20;0.70;;;;;;;18.92;100.00;100153.16;5048168;28;20495;-84
2022/08/20 03:13:12;;;;;;;3.67;0.82;;;;;;;18.82;100.00;100150.97;5048125;28;20017;-84
2022/08/20 03:15:43;;;;;;;8.23;1.10;;;;;;;18.73;100.00;100147.72;5030190;28;20313;-85
2022/08/20 03:18:09;;;;;;;6.25;1.05;;;;;;;18.73;100.00;100142.47;5052249;28;20025;-86
2022/08/20 03:20:35;;;;;;;11.10;0.90;;;;;;;18.76;100.00;100144.69;5033828;28;20064;-85
2022/08/20 03:23:00;;;;;;;5.75;0.60;;;;;;;18.76;100.00;100134.13;5051710;28;20029;-84
2022/08/20 03:25:26;;;;;;;8.05;0.93;;;;;;;18.80;100.00;100123.97;5051662;28;20075;-84
2022/08/20 03:27:52;;;;;;;2.17;0.50;;;;;;;18.83;100.00;100121.72;5051496;28;20045;-83
2022/08/20 03:30:18;;;;;;;4.68;0.80;;;;;;;18.90;100.00;100119.88;5033022;28;20060;-85
2022/08/20 03:32:44;;;;;;;3.75;0.70;;;;;;;18.96;100.00;100122.69;5033139;28;20048;-87
2022/08/20 03:35:12;;;;;;;4.38;1.38;;;;;;;19.06;100.00;100117.81;5051596;28;20029;-83
2022/08/20 03:37:39;;;;;;;4.15;0.75;;;;;;;19.09;100.00;100122.66;5051397;28;20099;-84
2022/08/20 03:40:08;;;;;;;5.68;1.02;;;;;;;19.08;100.00;100129.78;5051140;28;20025;-85
2022/08/20 03:42:34;;;;;;;4.35;0.70;;;;;;;19.04;100.00;100135.69;5032905;28;20503;-83
2022/08/20 03:45:00;;;;;;;5.07;0.85;;;;;;;18.96;100.00;100143.81;5032962;28;20052;-85
2022/08/20 03:47:26;;;;;;;6.38;1.10;;;;;;;18.86;100.00;100150.34;5033420;28;20456;-86
2022/08/20 03:49:51;;;;;;;7.30;0.90;;;;;;;18.83;100.00;100147.31;5039746;28;20017;-85
2022/08/20 03:52:17;;;;;;;4.32;0.80;;;;;;;18.85;100.00;100151.38;5058862;28;20063;-86
2022/08/20 03:54:52;;;;;;;9.02;1.15;;;;;;;18.93;100.00;100155.59;5055768;28;20009;-85
2022/08/20 03:57:17;;;;;;;4.03;0.90;;;;;;;18.91;100.00;100162.91;5058582;28;20021;-86
2022/08/20 03:59:43;;;;;;;4.68;1.10;;;;;;;18.82;100.00;100159.72;5057961;28;20077;-86
2022/08/20 04:02:10;;;;;;;5.10;1.45;;;;;;;18.75;100.00;100156.25;5033920;28;20036;-87
2022/08/20 04:04:35;;;;;;;6.82;1.10;;;;;;;18.70;100.00;100156.06;5050719;28;20064;-87
2022/08/20 04:07:09;;;;;;;7.93;1.08;;;;;;;18.67;100.00;100161.75;5032729;28;20052;-87
2022/08/20 04:09:36;;;;;;;3.00;1.50;;;;;;;18.77;100.00;100166.63;5032513;28;20537;-85
2022/08/20 04:12:01;;;;;;;10.35;0.93;;;;;;;18.82;100.00;100158.88;5031971;28;20479;-87
2022/08/20 04:14:27;;;;;;;5.15;0.80;;;;;;;18.89;100.00;100157.88;5032406;28;20108;-87
2022/08/20 04:16:52;;;;;;;3.90;1.13;;;;;;;19.01;100.00;100160.66;5050712;28;20047;-87
2022/08/20 04:19:18;;;;;;;6.72;1.10;;;;;;;19.19;100.00;100165.28;5050546;28;20097;-86
2022/08/20 04:21:46;;;;;;;7.70;0.70;;;;;;;19.33;100.00;100166.06;5050238;28;20049;-86
2022/08/20 04:24:14;;;;;;;3.22;0.60;;;;;;;19.43;100.00;100166.41;5050184;28;20021;-85
2022/08/20 04:26:40;;;;;;;3.08;0.50;;;;;;;19.52;100.00;100166.00;5030201;28;20036;-86
2022/08/20 04:29:06;;;;;;;7.57;1.45;;;;;;;19.58;100.00;100161.72;5046939;28;21652;-86
2022/08/20 04:31:32;;;;;;;6.13;1.15;;;;;;;19.59;100.00;100170.47;5049062;28;20036;-86
2022/08/20 04:34:03;;;;;;;3.30;0.70;;;;;;;19.54;100.00;100177.19;5048069;28;20044;-85
2022/08/20 04:36:29;;;;;;;4.15;0.82;;;;;;;19.50;100.00;100172.50;5047177;28;20398;-86
2022/08/20 04:38:55;;;;;;;3.70;0.60;;;;;;;19.46;100.00;100158.06;5050150;28;20356;-86
2022/08/20 04:41:39;;;;;;;5.18;0.90;;;;;;;19.45;100.00;100165.19;5047497;28;20614;-85
2022/08/20 04:44:04;;;;;;;3.78;0.60;;;;;;;19.38;100.00;100174.97;5049932;28;20017;-84
2022/08/20 04:46:31;;;;;;;3.63;1.02;;;;;;;19.36;100.00;100170.94;5031813;28;20040;-84
2022/08/20 04:48:57;;;;;;;6.25;0.63;;;;;;;19.39;100.00;100176.59;5049734;28;20024;-83
2022/08/20 04:51:24;;;;;;;3.97;1.02;;;;;;;19.42;100.00;100178.81;5031835;28;20495;-85
2022/08/20 04:53:52;;;;;;;4.13;0.70;;;;;;;19.41;100.00;100177.19;5031635;28;20108;-86
2022/08/20 04:56:18;;;;;;;4.13;0.88;;;;;;;19.35;100.00;100172.78;5049669;28;20434;-88
2022/08/20 04:58:47;;;;;;;4.78;0.77;;;;;;;19.24;100.00;100176.06;5049957;28;20448;-86
2022/08/20 05:01:13;;;;;;;5.00;0.98;;;;;;;19.16;100.00;100176.28;5050141;28;20112;-89
2022/08/20 05:03:40;;;;;;;4.80;1.23;;;;;;;19.14;100.00;100175.66;5049616;28;20354;-84
2022/08/20 05:06:10;;;;;;;6.65;1.00;;;;;;;19.09;100.00;100175.47;5049271;28;20028;-85
2022/08/20 05:08:37;;;;;;;6.95;1.27;;;;;;;19.12;100.00;100186.44;5031411;28;20025;-85
2022/08/20 05:11:04;;;;;;;7.80;1.38;;;;;;;19.16;100.00;100197.41;5049481;28;20017;-85
2022/08/20 05:13:29;;;;;;;4.18;1.00;;;;;;;19.13;100.00;100198.63;5031417;28;20468;-86
2022/08/20 05:15:56;;;;;;;3.40;1.00;;;;;;;19.13;100.00;100192.53;5031245;28;20025;-84
2022/08/20 05:18:24;;;;;;;6.30;1.20;;;;;;;19.14;100.00;100187.03;5049383;28;20029;-85
2022/08/20 05:20:50;;;;;;;8.30;1.08;;;;;;;19.24;100.00;100194.53;5030987;28;20383;-85
2022/08/20 05:23:18;;;;;;;5.43;0.98;;;;;;;19.40;100.00;100190.59;5049813;28;20029;-86
2022/08/20 05:25:46;;;;;;;6.18;1.17;;;;;;;19.56;100.00;100190.19;5049215;28;20021;-84
2022/08/20 05:28:22;;;;;;;6.65;1.33;;;;;;;19.66;100.00;100192.38;5031196;28;20634;-84
2022/08/20 05:30:49;;;;;;;11.35;1.05;;;;;;;19.74;100.00;100197.44;5031507;28;20115;-85
2022/08/20 05:33:18;;;;;;;5.13;1.10;;;;;;;19.78;100.00;100198.63;5049286;28;20033;-86
2022/08/20 05:35:46;;;;;;;5.28;0.60;;;;;;;19.83;100.00;100198.81;5031063;28;20025;-85
2022/08/20 05:38:17;;;;;;;2.80;0.52;;;;;;;19.95;100.00;100202.38;5030975;28;20021;-85
2022/08/20 05:40:43;;;;;;;4.32;0.85;;;;;;;20.06;100.00;100206.19;5031196;28;20032;-84
2022/08/20 05:43:10;;;;;;;6.70;0.77;;;;;;;20.18;100.00;100193.94;5049188;28;20057;-85
2022/08/20 05:45:37;;;;;;;4.30;0.75;;;;;;;20.27;100.00;100197.94;5032314;28;20032;-86
2022/08/20 05:48:10;;;;;;;4.22;1.13;;;;;;;20.36;100.00;100193.16;5055117;28;20029;-85
2022/08/20 05:50:37;;;;;;;8.90;1.33;;;;;;;20.44;100.00;100201.69;5057961;28;20084;-84
2022/08/20 05:53:02;;;;;;;4.63;1.10;;;;;;;20.43;100.00;100200.06;5039086;28;20055;-84
2022/08/20 05:55:28;;;;;;;3.67;0.63;;;;;;;20.48;100.00;100202.06;5057534;28;20021;-86
2022/08/20 05:57:58;;;;;;;5.90;1.35;;;;;;;20.45;100.00;100202.50;5035186;28;20029;-86
2022/08/20 06:00:24;;;;;;;12.07;0.93;;;;;;;20.49;100.00;100198.41;5057268;28;20085;-86
2022/08/20 06:05:34;;;;;;;2.90;0.50;;;;;;;20.63;100.00;100194.63;5049392;28;20503;-85
2022/08/20 06:08:00;;;;;;;6.80;1.13;;;;;;;20.74;100.00;100193.94;5031162;28;20108;-86
2022/08/20 06:10:25;;;;;;;4.60;0.70;;;;;;;20.84;100.00;100191.56;5030900;28;20652;-84
2022/08/20 06:12:52;;;;;;;4.88;0.90;;;;;;;20.89;100.00;100198.88;5048845;28;20025;-83
2022/08/20 06:15:18;;;;;;;3.63;0.50;;;;;;;20.97;100.00;100201.22;5049261;28;20040;-85
2022/08/20 06:17:43;;;;;;;3.83;0.63;;;;;;;21.02;100.00;100200.59;5031025;28;20091;-84
2022/08/20 06:20:09;;;;;;;6.40;0.98;;;;;;;21.09;100.00;100206.63;5030829;28;20021;-85
2022/08/20 06:22:36;;;;;;;4.45;1.02;;;;;;;21.18;100.00;100203.47;5030841;28;20117;-84
2022/08/20 06:25:03;;;;;;;4.63;0.90;;;;;;;21.26;100.00;100207.72;5048891;28;20032;-85
2022/08/20 06:27:29;;;;;;;5.40;0.68;;;;;;;21.34;99.67;100199.44;5048394;28;20504;-84
2022/08/20 06:29:54;;;;;;;4.18;0.73;;;;;;;21.39;99.11;100204.09;5048915;28;20029;-84
2022/08/20 06:32:21;;;;;;;4.30;0.50;;;;;;;21.42;98.18;100206.28;5049509;28;20025;-86
2022/08/20 06:34:47;;;;;;;6.63;0.60;;;;;;;21.48;98.97;100197.44;5049480;28;20364;-85
2022/08/20 06:37:22;;;;;;;6.70;1.17;;;;;;;21.56;97.38;100197.16;5030574;28;20543;-86
2022/08/20 06:39:49;;;;;;;5.05;1.02;;;;;;;21.66;97.53;100210.69;5031183;28;20029;-85
2022/08/20 06:42:15;;;;;;;4.25;0.60;;;;;;;21.75;95.61;100209.34;5027594;28;20037;-87
2022/08/20 06:44:41;;;;;;;5.03;1.00;;;;;;;21.83;96.24;100209.03;5027532;28;20060;-86
2022/08/20 06:47:06;;;;;;;8.43;1.00;;;;;;;21.89;95.38;100207.31;5027270;28;20030;-87
2022/08/20 06:49:35;;;;;;;6.85;0.82;;;;;;;21.99;95.88;100215.56;5028417;28;20167;-86
2022/08/20 06:52:03;;;;;;;5.10;0.85;;;;;;;22.05;94.89;100220.00;5029456;28;20043;-84
2022/08/20 06:54:39;;;;;;;;;;;;;;;;;;;;;
2022/08/20 06:57:04;;;;;;;7.85;0.95;;;;;;;22.31;93.79;100229.41;5035257;28;20031;-90
2022/08/20 06:59:30;;;;;;;5.45;0.57;;;;;;;22.41;92.69;100220.91;5034613;28;20030;-88
2022/08/20 07:01:56;;;;;;;2.70;0.60;;;;;;;22.50;92.92;100225.66;5033105;28;20056;-86
2022/08/20 07:04:25;;;;;;;6.00;0.63;;;;;;;22.68;92.27;100216.78;5033119;28;20057;-88
2022/08/20 07:06:52;;;;;;;3.15;0.55;;;;;;;22.73;93.00;100216.88;5031426;28;20501;-86
2022/08/20 07:09:21;;;;;;;4.93;0.80;;;;;;;22.73;91.20;100216.88;5031078;28;20433;-85
2022/08/20 07:11:49;;;;;;;8.38;0.80;;;;;;;22.74;91.70;100215.84;5033057;28;20044;-91
2022/08/20 07:14:17;;;;;;;6.95;0.70;;;;;;;22.77;91.60;100217.25;5032551;28;20033;-87
2022/08/20 07:16:43;;;;;;;7.43;0.90;;;;;;;22.87;92.25;100222.00;5045124;22;20376;-66
2022/08/20 07:19:09;;;;;;;4.50;0.73;;;;;;;22.97;91.48;100227.56;5070653;28;20036;-66
2022/08/20 07:21:35;;;;;;;3.20;0.50;;;;;;;23.07;90.79;100220.63;5070311;28;20070;-67
2022/08/20 07:24:01;;;;;;;6.47;1.00;;;;;;;23.21;90.45;100223.84;5070793;28;20429;-66
2022/08/20 07:26:26;;;;;;;3.58;0.77;;;;;;;23.37;90.62;100211.69;5070819;28;20067;-66
2022/08/20 07:28:53;;;;;;;2.55;0.43;;;;;;;23.44;89.85;100212.38;5070350;28;20442;-67
2022/08/20 07:34:11;;;;;;;5.97;0.65;;;;;;;23.65;88.10;100216.25;5046164;28;20041;-66
2022/08/20 07:36:36;;;;;;;5.80;1.00;;;;;;;23.77;88.01;100212.53;5070377;28;20039;-67
2022/08/20 07:39:03;;;;;;;4.20;0.50;;;;;;;23.95;88.50;100208.06;5070572;28;20032;-67
2022/08/20 07:41:28;;;;;;;3.13;0.50;;;;;;;24.01;87.84;100202.59;5070388;28;20020;-67
2022/08/20 07:43:53;;;;;;;5.38;0.68;;;;;;;24.12;86.41;100201.72;5070212;28;20024;-67
2022/08/20 07:46:20;;;;;;;4.78;0.65;;;;;;;24.20;85.42;100205.03;5070699;28;20032;-66
2022/08/20 07:48:48;;;;;;;7.43;0.80;;;;;;;24.28;84.49;100210.81;5070007;28;20147;-67
2022/08/20 07:51:16;;;;;;;4.90;0.50;;;;;;;24.36;83.93;100212.25;5068853;28;20506;-67
2022/08/20 07:53:43;;;;;;;6.72;0.52;;;;;;;24.46;84.10;100223.91;5068479;28;20496;-66
2022/08/20 07:56:18;;;;;;;3.00;0.63;;;;;;;24.65;82.26;100223.63;5070194;28;20085;-67
2022/08/20 07:58:48;;;;;;;3.60;0.63;;;;;;;24.80;83.71;100222.03;5068587;28;20028;-66
2022/08/20 08:01:27;;;;;;;3.80;0.60;;;;;;;25.05;83.93;100220.78;5069658;28;20111;-66
2022/08/20 08:03:53;;;;;;;5.03;0.70;;;;;;;25.31;83.70;100216.63;5069870;28;20032;-66
2022/08/20 08:06:21;;;;;;;6.32;0.65;;;;;;;25.43;82.95;100212.78;5069951;28;20202;-67
2022/08/20 08:08:47;;;;;;;5.32;0.88;;;;;;;25.58;82.45;100214.81;5069750;28;20052;-67
2022/08/20 08:11:13;;;;;;;3.53;0.60;;;;;;;25.72;82.19;100204.59;5068289;28;20033;-67
2022/08/20 08:13:40;;;;;;;1.40;0.43;;;;;;;25.74;81.03;100203.28;5069687;28;20424;-66
2022/08/20 08:16:07;;;;;;;7.63;0.68;;;;;;;25.76;81.25;100198.50;5068010;28;20021;-66
2022/08/20 08:18:38;;;;;;;5.07;0.68;;;;;;;25.94;80.74;100196.56;5069367;28;20580;-66
2022/08/20 08:21:08;;;;;;;6.43;0.73;;;;;;;26.13;80.07;100187.91;5069831;28;20033;-66
2022/08/20 08:23:34;;;;;;;4.13;0.65;;;;;;;26.28;78.47;100194.47;5069500;28;20110;-64
2022/08/20 08:26:00;;;;;;;5.13;0.70;;;;;;;26.33;78.23;100206.03;5069559;28;20021;-67
2022/08/20 08:28:29;;;;;;;5.80;0.68;;;;;;;26.22;77.36;100198.16;5069204;28;20439;-66
2022/08/20 08:30:55;;;;;;;2.85;0.50;;;;;;;26.43;76.89;100198.09;5068036;28;20137;-68
2022/08/20 08:33:28;;;;;;;5.15;0.63;;;;;;;26.65;76.31;100197.97;5067832;28;20043;-66
2022/08/20 08:36:08;;;;;;;3.40;0.45;;;;;;;26.78;73.96;100200.22;5069353;28;20058;-67
2022/08/20 08:38:36;;;;;;;3.95;0.60;;;;;;;26.82;75.57;100202.38;5067876;28;20029;-68
2022/08/20 08:41:30;;;;;;;7.45;0.52;;;;;;;26.83;69.97;100190.63;5067714;28;20031;-68
2022/08/20 08:44:13;;;;;;;9.35;0.80;;;;;;;26.87;73.51;100197.06;5069167;28;20068;-67
2022/08/20 08:46:42;;;;;;;2.28;0.57;;;;;;;26.87;72.31;100194.38;5069120;28;20082;-66
2022/08/20 08:49:15;;;;;;;3.47;0.50;;;;;;;26.77;74.32;100190.59;5069252;28;20035;-66
2022/08/20 08:51:46;;;;;;;4.35;0.50;;;;;;;26.88;73.99;100190.66;5068771;28;20056;-66
2022/08/20 08:54:19;;;;;;;8.90;0.88;;;;;;;26.95;73.12;100193.88;5051421;28;20054;-67
2022/08/20 08:56:45;;;;;;;4.80;0.52;;;;;;;26.97;75.25;100191.78;5069083;28;20021;-66
2022/08/20 08:59:10;;;;;;;4.72;0.68;;;;;;;27.07;73.30;100202.53;5067310;28;20147;-66
2022/08/20 09:01:44;;;;;;;3.75;0.70;;;;;;;27.10;71.62;100197.47;5068764;28;20490;-69
2022/08/20 09:04:14;;;;;;;4.80;0.88;;;;;;;27.27;72.08;100199.97;5068745;28;20032;-67
2022/08/20 09:06:42;;;;;;;5.05;0.32;;;;;;;27.14;69.68;100196.97;5068643;28;20024;-69
2022/08/20 09:09:25;;;;;;;7.22;0.77;;;;;;;27.13;69.47;100201.50;5067142;28;20025;-68
2022/08/20 09:11:54;;;;;;;6.00;0.73;;;;;;;27.26;71.22;100197.56;5067152;28;20177;-68
2022/08/20 09:14:21;;;;;;;5.05;0.73;;;;;;;27.37;70.75;100191.19;5067790;28;20056;-68
2022/08/20 09:16:47;;;;;;;2.75;0.45;;;;;;;27.37;70.30;100189.31;5050385;28;20068;-66
2022/08/20 09:19:12;;;;;;;5.72;0.60;;;;;;;27.44;70.67;100181.81;5068395;28;20453;-67
2022/08/20 09:21:38;;;;;;;6.13;0.63;;;;;;;27.47;70.49;100187.72;5068942;28;20391;-68
2022/08/20 09:24:04;;;;;;;7.50;0.93;;;;;;;27.37;70.03;100183.16;5068513;28;20215;-65
2022/08/20 09:26:30;;;;;;;2.67;0.40;;;;;;;27.27;70.93;100186.59;5068504;28;20494;-68
2022/08/20 09:28:56;;;;;;;7.68;0.55;;;;;;;27.19;70.57;100194.31;5068546;28;20566;-66
2022/08/20 09:31:23;;;;;;;2.00;0.43;;;;;;;27.18;69.62;100182.81;5067602;28;20111;-67
2022/08/20 09:33:49;;;;;;;6.80;0.43;;;;;;;27.19;65.18;100196.97;5066435;28;20082;-68
2022/08/20 09:36:15;;;;;;;2.00;0.40;;;;;;;27.07;67.42;100191.84;5066744;28;20456;-69
2022/08/20 09:38:40;;;;;;;2.80;0.60;;;;;;;27.21;67.51;100189.50;5068180;28;20028;-66
2022/08/20 09:41:06;;;;;;;3.72;1.00;;;;;;;27.33;67.97;100180.22;5067904;28;20035;-68
2022/08/20 09:43:31;;;;;;;2.67;0.50;;;;;;;27.55;66.93;100184.53;5068014;28;20032;-68
2022/08/20 09:45:57;;;;;;;4.90;0.52;;;;;;;27.79;66.51;100187.59;5068047;28;20122;-66
2022/08/20 09:48:22;;;;;;;4.45;1.00;;;;;;;27.94;67.11;100187.59;5067967;28;20158;-67
2022/08/20 09:50:49;;;;;;;5.15;0.40;;;;;;;27.86;64.32;100199.66;5068085;28;20028;-69
2022/08/20 09:53:16;;;;;;;11.63;1.50;;;;;;;27.74;65.42;100191.06;5068097;28;20051;-69
2022/08/20 09:55:50;;;;;;;4.55;0.50;;;;;;;27.57;63.97;100195.78;5067891;28;20029;-66
2022/08/20 09:58:37;;;;;;;3.53;0.45;;;;;;;27.36;63.03;100194.94;5068085;28;20491;-65
2022/08/20 10:01:10;;;;;;;7.40;0.50;;;;;;;27.26;64.71;100195.69;5067952;28;20029;-67
2022/08/20 10:03:36;;;;;;;4.97;0.63;;;;;;;27.25;64.45;100194.06;5068069;28;20036;-68
2022/08/20 10:06:01;;;;;;;5.40;0.50;;;;;;;27.26;64.75;100193.00;5067747;28;20051;-69
2022/08/20 10:08:27;;;;;;;5.57;1.00;;;;;;;27.17;65.18;100178.53;5067568;28;20064;-66
2022/08/20 10:10:53;;;;;;;2.95;0.20;;;;;;;27.14;63.97;100191.59;5067925;28;20087;-65
2022/08/20 10:13:18;;;;;;;4.13;0.28;;;;;;;27.22;60.03;100188.44;5065294;28;20033;-66
2022/08/20 10:15:44;;;;;;;1.27;0.20;;;;;;;27.42;57.68;100186.63;5065968;28;20434;-68
2022/08/20 10:18:09;;;;;;;3.42;0.10;;;;;;;27.51;57.58;100186.13;5066193;28;20052;-67
2022/08/20 10:20:35;;;;;;;4.75;0.20;;;;;;;27.65;55.69;100181.94;5064598;28;20040;-67
2022/08/20 10:23:02;;;;;;;0.68;0.10;;;;;;;27.68;56.31;100173.38;5062118;28;20075;-68
2022/08/20 10:25:28;;;;;;;3.13;0.20;;;;;;;27.69;55.95;100169.63;5067164;28;20184;-65
2022/08/20 10:27:54;;;;;;;2.13;0.20;;;;;;;27.59;53.90;100172.28;5071361;28;20025;-65
2022/08/20 10:30:20;;;;;;;1.85;0.10;;;;;;;27.56;55.27;100168.22;5067565;28;20036;-68
2022/08/20 10:32:45;;;;;;;0.65;0.10;;;;;;;27.50;54.71;100166.59;5069566;28;20418;-66
2022/08/20 10:35:11;;;;;;;1.20;0.10;;;;;;;27.48;54.70;100163.38;5067106;28;20461;-67
2022/08/20 10:37:37;;;;;;;0.75;0.10;;;;;;;27.47;55.56;100158.28;5066416;28;20099;-68
2022/08/20 10:40:04;;;;;;;1.38;0.20;;;;;;;27.64;53.52;100169.63;5068349;28;20032;-68
2022/08/20 10:42:30;;;;;;;2.00;0.13;;;;;;;27.58;54.15;100163.41;5067685;28;20029;-68
2022/08/20 10:44:55;;;;;;;1.25;0.38;;;;;;;27.58;52.99;100159.94;5083025;28;20098;-66
2022/08/20 10:47:26;;;;;;;0.63;0.20;;;;;;;27.56;54.86;100168.22;5070579;28;20044;-65
2022/08/20 10:49:54;;;;;;;1.73;0.10;;;;;;;27.53;56.09;100158.03;5068954;28;20115;-69
2022/08/20 10:52:21;;;;;;;0.82;0.00;;;;;;;27.58;54.26;100159.94;5071242;28;20040;-68
2022/08/20 10:54:46;;;;;;;3.05;0.10;;;;;;;27.68;54.42;100157.31;5065757;28;20029;-68
2022/08/20 10:57:15;;;;;;;1.17;0.10;;;;;;;27.76;51.77;100162.16;5066994;28;20030;-67
2022/08/20 10:59:43;;;;;;;0.20;0.10;;;;;;;27.82;51.79;100155.75;5067221;28;20556;-67
2022/08/20 11:02:09;;;;;;;0.40;0.10;;;;;;;27.70;50.88;100152.50;5066322;28;20031;-67
2022/08/20 11:04:35;;;;;;;0.85;0.20;;;;;;;27.62;52.45;100151.16;5070593;28;20036;-66
2022/08/20 11:07:11;;;;;;;1.50;0.10;;;;;;;27.55;51.86;100152.44;5067796;28;20109;-65
2022/08/20 11:09:36;;;;;;;0.90;0.10;;;;;;;27.39;53.24;100156.97;5070051;28;20036;-65
2022/08/20 11:12:02;;;;;;;0.60;0.10;;;;;;;27.33;54.30;100153.47;5068770;28;20043;-68
2022/08/20 11:14:28;;;;;;;0.50;0.10;;;;;;;27.17;55.18;100164.34;5070511;28;20046;-67
2022/08/20 11:16:53;;;;;;;1.45;0.10;;;;;;;26.99;55.93;100163.72;5070496;28;20047;-67
2022/08/20 11:19:19;;;;;;;2.00;0.03;;;;;;;27.01;55.00;100166.13;5069312;28;20024;-67
2022/08/20 11:21:44;;;;;;;0.65;0.10;;;;;;;26.95;55.47;100157.25;5064849;28;20051;-65
2022/08/20 11:24:10;;;;;;;0.35;0.10;;;;;;;26.91;55.55;100163.41;5070452;28;20024;-65
2022/08/20 11:26:35;;;;;;;2.38;0.10;;;;;;;27.02;54.88;100162.41;5068446;28;20037;-67
2022/08/20 11:29:01;;;;;;;0.68;0.20;;;;;;;27.16;54.85;100152.84;5069471;28;20055;-66
2022/08/20 11:31:26;;;;;;;2.05;0.10;;;;;;;27.23;54.00;100150.75;5069623;28;20056;-67
2022/08/20 11:33:52;;;;;;;0.70;0.00;;;;;;;27.17;54.17;100146.44;5070823;28;20028;-68